Mayflower, Arkansas
Current Conditions -  °F | °C
As of 2:58 PM on Thursday 23 Oct 2014 (Local Time) from KLRF Reporting Station
Scattered Clouds Scattered Clouds  
Wind Chill: 63°   Ceiling: Unl
Heat Index: 63°   Visibility: 10mi
Dew Point: 46°   Wind: 2mph
Humidity: 54%   Direction: 270°W
Pressure: 30.15"   Gusts: NA
Location:  34.96°N, 92.43°W
Report Text: KLRF 231958Z AUTO 27002KT 10SM SCT160 17/08 A3015 RMK AO2 SLP213 T01730078
Loading
Personal Weather Stations






























Interactive Weather Map
Tropical Storm Tracking
New forecast layout! Learn more

10-Day Weather Forecast

Advertisements
Track Severe Weather on mobile